Time;durP1;ratioP1;P1;durP2;ratioP2;P2;SDS_P1;SDS_P2;PMS_P1;PMS_P2;Temp;Humidity;BMP_temperature;BMP_pressure;BME280_temperature;BME280_humidity;BME280_pressure;Samples;Min_cycle;Max_cycle;Signal;HPM_P1;HPM_P2
2022/01/06 00:00:53;;;;;;;3.63;1.40;;;;;;;;;;5031826;28;20037;-72
2022/01/06 00:03:20;;;;;;;6.30;1.10;;;;;;;;;;5031884;28;20472;-71
2022/01/06 00:05:47;;;;;;;4.97;1.40;;;;;;;;;;5031762;28;20029;-71
2022/01/06 00:08:14;;;;;;;3.83;1.40;;;;;;;;;;5031931;28;20046;-71
2022/01/06 00:10:40;;;;;;;6.70;1.80;;;;;;;;;;5045139;28;20055;-72
2022/01/06 00:13:12;;;;;;;9.37;2.03;;;;;;;;;;5046982;28;20471;-71
2022/01/06 00:23:34;;;;;;;17.33;4.40;;;;;;;;;;5032086;28;20091;-71
2022/01/06 00:26:02;;;;;;;13.40;4.53;;;;;;;;;;5035931;28;20022;-71
2022/01/06 00:28:29;;;;;;;27.60;6.43;;;;;;;;;;5035449;28;20022;-71
2022/01/06 00:30:56;;;;;;;20.37;7.07;;;;;;;;;;5035366;28;20033;-71
2022/01/06 00:33:24;;;;;;;42.53;14.93;;;;;;;;;;5031016;28;20029;-71
2022/01/06 00:35:51;;;;;;;36.87;15.10;;;;;;;;;;5030118;28;20041;-71
2022/01/06 00:38:18;;;;;;;26.23;11.77;;;;;;;;;;5030503;28;20026;-71
2022/01/06 00:40:44;;;;;;;11.63;5.57;;;;;;;;;;5030305;28;20061;-73
2022/01/06 00:43:12;;;;;;;10.93;3.17;;;;;;;;;;5034316;28;20018;-71
2022/01/06 00:45:38;;;;;;;13.33;3.23;;;;;;;;;;5034780;28;20480;-71
2022/01/06 00:48:14;;;;;;;15.90;3.40;;;;;;;;;;5035372;28;20029;-71
2022/01/06 00:50:42;;;;;;;15.57;3.00;;;;;;;;;;5035410;28;20067;-71
2022/01/06 00:53:09;;;;;;;14.10;3.40;;;;;;;;;;5035168;28;20071;-71
2022/01/06 00:55:37;;;;;;;14.50;4.03;;;;;;;;;;5030769;28;20139;-72
2022/01/06 00:58:04;;;;;;;10.80;2.97;;;;;;;;;;5030467;28;20021;-71
2022/01/06 01:00:38;;;;;;;9.23;3.13;;;;;;;;;;5029612;28;20025;-72
2022/01/06 01:03:15;;;;;;;11.30;3.25;;;;;;;;;;5030366;28;20084;-71
2022/01/06 01:05:43;;;;;;;15.23;6.60;;;;;;;;;;5033882;28;20040;-71
2022/01/06 01:08:10;;;;;;;6.73;2.67;;;;;;;;;;5034929;28;20029;-71
2022/01/06 01:10:37;;;;;;;13.17;2.93;;;;;;;;;;5046673;28;20025;-71
2022/01/06 01:13:04;;;;;;;9.57;2.83;;;;;;;;;;5035028;28;20021;-71
2022/01/06 01:15:34;;;;;;;6.70;2.97;;;;;;;;;;5034851;28;20044;-71
2022/01/06 01:18:10;;;;;;;9.10;3.07;;;;;;;;;;5035378;28;20025;-71
2022/01/06 01:20:37;;;;;;;6.90;2.70;;;;;;;;;;5042338;28;20034;-71
2022/01/06 01:23:04;;;;;;;6.77;2.30;;;;;;;;;;5029452;28;20029;-71
2022/01/06 01:25:31;;;;;;;11.13;3.20;;;;;;;;;;5029850;28;20049;-71
2022/01/06 01:27:58;;;;;;;23.17;9.23;;;;;;;;;;5033750;28;20091;-71
2022/01/06 01:30:31;;;;;;;8.30;3.33;;;;;;;;;;5034076;28;20026;-71
2022/01/06 01:32:59;;;;;;;5.70;2.73;;;;;;;;;;5034781;28;20353;-71
2022/01/06 01:35:31;;;;;;;11.63;4.00;;;;;;;;;;5033662;28;20124;-71
2022/01/06 01:37:59;;;;;;;17.70;4.37;;;;;;;;;;5034430;28;20499;-71
2022/01/06 01:40:26;;;;;;;14.10;3.90;;;;;;;;;;5029221;28;20115;-71
2022/01/06 01:42:53;;;;;;;13.10;4.77;;;;;;;;;;5029100;28;20024;-71
2022/01/06 01:45:26;;;;;;;18.47;6.60;;;;;;;;;;5029405;28;20025;-71
2022/01/06 01:47:53;;;;;;;6.37;2.50;;;;;;;;;;5029515;28;20631;-72
2022/01/06 01:50:21;;;;;;;12.20;2.70;;;;;;;;;;5033120;28;20037;-71
2022/01/06 01:52:53;;;;;;;11.50;3.27;;;;;;;;;;5034290;28;20025;-71
2022/01/06 01:55:29;;;;;;;7.20;2.97;;;;;;;;;;5016290;28;20423;-71
2022/01/06 01:57:57;;;;;;;6.33;2.23;;;;;;;;;;5034179;28;20079;-71
2022/01/06 02:00:26;;;;;;;9.03;2.13;;;;;;;;;;5033585;28;20084;-72
2022/01/06 02:02:53;;;;;;;9.63;2.17;;;;;;;;;;5029107;28;20053;-72
2022/01/06 02:05:26;;;;;;;9.70;2.30;;;;;;;;;;5028588;28;20026;-72
2022/01/06 02:07:53;;;;;;;7.83;2.13;;;;;;;;;;5029001;28;20033;-71
2022/01/06 02:10:20;;;;;;;8.20;2.50;;;;;;;;;;5042982;28;20056;-72
2022/01/06 02:12:49;;;;;;;5.93;2.30;;;;;;;;;;5053055;28;20035;-71
2022/01/06 02:15:16;;;;;;;6.37;1.97;;;;;;;;;;5052225;28;20036;-71
2022/01/06 02:17:44;;;;;;;6.50;2.43;;;;;;;;;;5036449;28;20023;-71
2022/01/06 02:20:15;;;;;;;8.97;2.53;;;;;;;;;;5053821;28;20020;-71
2022/01/06 02:22:42;;;;;;;7.30;2.30;;;;;;;;;;5053787;28;20025;-71
2022/01/06 02:25:10;;;;;;;4.00;1.77;;;;;;;;;;5048450;28;20025;-71
2022/01/06 02:27:37;;;;;;;8.83;3.97;;;;;;;;;;5027828;28;20032;-71
2022/01/06 02:30:05;;;;;;;45.63;20.20;;;;;;;;;;5028462;28;20025;-71
2022/01/06 02:32:32;;;;;;;24.17;11.50;;;;;;;;;;5028693;28;20079;-72
2022/01/06 02:34:58;;;;;;;7.57;3.37;;;;;;;;;;5032272;28;20030;-71
2022/01/06 02:37:25;;;;;;;11.40;4.63;;;;;;;;;;5032941;28;20155;-71
2022/01/06 02:39:52;;;;;;;14.77;4.93;;;;;;;;;;5033359;28;20033;-71
2022/01/06 02:42:19;;;;;;;13.63;3.57;;;;;;;;;;5033173;28;20032;-69
2022/01/06 02:44:46;;;;;;;7.50;2.57;;;;;;;;;;5032803;28;20472;-72
2022/01/06 02:47:12;;;;;;;11.90;2.80;;;;;;;;;;5028322;28;20025;-72
2022/01/06 02:49:39;;;;;;;8.97;3.23;;;;;;;;;;5028234;28;20018;-72
2022/01/06 02:52:06;;;;;;;9.17;2.90;;;;;;;;;;5027983;28;20095;-72
2022/01/06 02:54:33;;;;;;;6.97;3.30;;;;;;;;;;5027647;28;20032;-72
2022/01/06 02:57:02;;;;;;;6.60;2.90;;;;;;;;;;5031479;28;20108;-71
2022/01/06 02:59:28;;;;;;;10.73;2.73;;;;;;;;;;5032874;28;20029;-72
2022/01/06 03:01:55;;;;;;;11.13;3.43;;;;;;;;;;5032418;28;20551;-72
2022/01/06 03:04:23;;;;;;;5.23;2.80;;;;;;;;;;5032447;28;20464;-72
2022/01/06 03:06:52;;;;;;;6.20;2.50;;;;;;;;;;5032805;28;20045;-72
2022/01/06 03:09:26;;;;;;;7.27;2.60;;;;;;;;;;5034756;28;20031;-71
2022/01/06 03:11:56;;;;;;;13.70;3.00;;;;;;;;;;5047728;28;20471;-71
2022/01/06 03:14:23;;;;;;;8.87;2.73;;;;;;;;;;5037339;28;20104;-72
2022/01/06 03:16:51;;;;;;;4.97;2.27;;;;;;;;;;5027634;28;20138;-72
2022/01/06 03:19:18;;;;;;;4.87;2.33;;;;;;;;;;5046920;28;20029;-72
2022/01/06 03:21:45;;;;;;;6.47;2.73;;;;;;;;;;5052812;28;20035;-71
2022/01/06 03:24:12;;;;;;;7.13;2.43;;;;;;;;;;5043975;28;20029;-72
2022/01/06 03:26:38;;;;;;;4.13;2.20;;;;;;;;;;5032491;28;20024;-71
2022/01/06 03:29:05;;;;;;;8.00;3.00;;;;;;;;;;5032638;28;20021;-71
2022/01/06 03:31:32;;;;;;;6.20;2.63;;;;;;;;;;5028662;28;20029;-72
2022/01/06 03:33:59;;;;;;;4.97;2.00;;;;;;;;;;5027253;28;20040;-72
2022/01/06 03:36:25;;;;;;;6.40;1.87;;;;;;;;;;5027365;28;20542;-72
2022/01/06 03:38:52;;;;;;;11.00;2.40;;;;;;;;;;5027308;28;20045;-72
2022/01/06 03:41:19;;;;;;;8.43;2.40;;;;;;;;;;5030153;28;20029;-73
2022/01/06 03:43:46;;;;;;;4.80;1.80;;;;;;;;;;5031555;28;20411;-72
2022/01/06 03:46:12;;;;;;;6.97;2.20;;;;;;;;;;5032212;28;20472;-72
2022/01/06 03:48:39;;;;;;;9.33;1.90;;;;;;;;;;5032211;28;20488;-72
2022/01/06 03:51:06;;;;;;;6.80;2.53;;;;;;;;;;5032076;28;20026;-72
2022/01/06 03:53:33;;;;;;;7.03;2.20;;;;;;;;;;5029191;28;20037;-72
2022/01/06 03:55:59;;;;;;;9.37;2.53;;;;;;;;;;5027235;28;20038;-72
2022/01/06 03:58:26;;;;;;;6.07;2.33;;;;;;;;;;5027758;28;20098;-72
2022/01/06 04:00:53;;;;;;;6.63;1.90;;;;;;;;;;5031158;28;20022;-72
2022/01/06 04:03:20;;;;;;;6.33;1.93;;;;;;;;;;5033091;28;20102;-73
2022/01/06 04:05:46;;;;;;;4.37;1.73;;;;;;;;;;5036031;28;20031;-71
2022/01/06 04:08:13;;;;;;;5.20;1.80;;;;;;;;;;5035757;28;20460;-71
2022/01/06 04:10:40;;;;;;;7.33;1.67;;;;;;;;;;5053028;28;20021;-71
2022/01/06 04:13:07;;;;;;;10.90;1.77;;;;;;;;;;5056022;28;20096;-71
2022/01/06 04:15:34;;;;;;;5.23;1.40;;;;;;;;;;5035448;28;20474;-71
2022/01/06 04:18:00;;;;;;;4.40;1.13;;;;;;;;;;5036164;28;20025;-71
2022/01/06 04:20:27;;;;;;;7.10;1.80;;;;;;;;;;5050726;28;20581;-71
2022/01/06 04:22:54;;;;;;;3.67;1.53;;;;;;;;;;5051006;28;20055;-72
2022/01/06 04:25:21;;;;;;;4.53;1.73;;;;;;;;;;5035824;28;20079;-71
2022/01/06 04:27:48;;;;;;;5.47;1.60;;;;;;;;;;5035342;28;20029;-72
2022/01/06 04:30:14;;;;;;;3.20;1.20;;;;;;;;;;5036007;28;20053;-72
2022/01/06 04:32:41;;;;;;;5.63;1.73;;;;;;;;;;5035447;28;20029;-72
2022/01/06 04:35:09;;;;;;;3.57;1.40;;;;;;;;;;5035474;28;20053;-71
2022/01/06 04:37:36;;;;;;;3.77;1.80;;;;;;;;;;5033536;28;20029;-71
2022/01/06 04:40:04;;;;;;;3.17;1.40;;;;;;;;;;5030719;28;20036;-71
2022/01/06 04:42:31;;;;;;;3.37;1.90;;;;;;;;;;5030329;28;20021;-71
2022/01/06 04:44:57;;;;;;;3.10;1.43;;;;;;;;;;5030607;28;20053;-73
2022/01/06 04:47:24;;;;;;;3.13;1.10;;;;;;;;;;5030948;28;20022;-72
2022/01/06 04:49:51;;;;;;;3.10;1.20;;;;;;;;;;5035243;28;20033;-72
2022/01/06 04:52:18;;;;;;;5.53;1.40;;;;;;;;;;5035272;28;20575;-72
2022/01/06 04:54:45;;;;;;;5.90;1.60;;;;;;;;;;5035250;28;20044;-71
2022/01/06 04:57:12;;;;;;;5.20;1.60;;;;;;;;;;5034765;28;20380;-71
2022/01/06 04:59:39;;;;;;;2.10;1.10;;;;;;;;;;5033719;28;20117;-71
2022/01/06 05:02:06;;;;;;;5.03;1.40;;;;;;;;;;5030280;28;20045;-71
2022/01/06 05:04:33;;;;;;;3.10;1.27;;;;;;;;;;5030260;28;20105;-70
2022/01/06 05:07:00;;;;;;;6.07;1.57;;;;;;;;;;5029707;28;20102;-71
2022/01/06 05:09:26;;;;;;;2.83;1.30;;;;;;;;;;5036960;28;20024;-71
2022/01/06 05:11:53;;;;;;;2.40;1.20;;;;;;;;;;5053653;28;20059;-71
2022/01/06 05:14:20;;;;;;;3.10;1.43;;;;;;;;;;5054710;28;20104;-71
2022/01/06 05:16:47;;;;;;;3.83;1.40;;;;;;;;;;5046960;28;20423;-73
2022/01/06 05:19:14;;;;;;;8.50;1.10;;;;;;;;;;5050307;28;20395;-72
2022/01/06 05:21:41;;;;;;;4.00;1.20;;;;;;;;;;5054068;28;20025;-72
2022/01/06 05:24:14;;;;;;;3.83;1.90;;;;;;;;;;5040587;28;20029;-71
2022/01/06 05:26:42;;;;;;;8.20;1.60;;;;;;;;;;5029801;28;20026;-71
2022/01/06 05:29:09;;;;;;;2.90;1.33;;;;;;;;;;5029839;28;20029;-73
2022/01/06 05:31:36;;;;;;;2.90;1.30;;;;;;;;;;5029252;28;20029;-73
2022/01/06 05:34:03;;;;;;;2.53;1.30;;;;;;;;;;5034184;28;20026;-71
2022/01/06 05:36:30;;;;;;;3.53;1.50;;;;;;;;;;5034396;28;20043;-72
2022/01/06 05:39:00;;;;;;;3.50;2.00;;;;;;;;;;5034090;28;20037;-72
2022/01/06 05:41:27;;;;;;;3.80;1.80;;;;;;;;;;5034349;28;20708;-72
2022/01/06 05:43:54;;;;;;;5.67;2.00;;;;;;;;;;5016208;28;20384;-73
2022/01/06 05:46:21;;;;;;;4.33;1.30;;;;;;;;;;5029382;28;20022;-72
2022/01/06 05:48:48;;;;;;;5.67;1.40;;;;;;;;;;5028621;28;20025;-72
2022/01/06 05:51:15;;;;;;;3.93;1.63;;;;;;;;;;5029181;28;20459;-73
2022/01/06 05:53:42;;;;;;;4.30;1.73;;;;;;;;;;5029390;28;20427;-72
2022/01/06 05:56:09;;;;;;;5.57;2.03;;;;;;;;;;5033600;28;20428;-72
2022/01/06 05:58:39;;;;;;;2.77;1.47;;;;;;;;;;5033861;28;20099;-72
2022/01/06 06:01:07;;;;;;;4.13;1.67;;;;;;;;;;5033628;28;20163;-72
2022/01/06 06:03:35;;;;;;;2.73;1.10;;;;;;;;;;5032409;28;20033;-74
2022/01/06 06:06:02;;;;;;;4.77;1.47;;;;;;;;;;5033643;28;20033;-73
2022/01/06 06:08:28;;;;;;;4.07;1.20;;;;;;;;;;5028955;28;20029;-74
2022/01/06 06:10:55;;;;;;;3.67;1.53;;;;;;;;;;5048398;28;20059;-75
2022/01/06 06:13:22;;;;;;;4.20;1.43;;;;;;;;;;5049449;28;20112;-74
2022/01/06 06:15:49;;;;;;;6.10;1.87;;;;;;;;;;5034758;28;20659;-75
2022/01/06 06:18:16;;;;;;;4.80;1.30;;;;;;;;;;5040656;28;20079;-75
2022/01/06 06:20:44;;;;;;;3.63;1.40;;;;;;;;;;5039812;28;20071;-74
2022/01/06 06:23:11;;;;;;;4.97;1.67;;;;;;;;;;5033869;28;20426;-73
2022/01/06 06:25:37;;;;;;;2.83;1.27;;;;;;;;;;5033801;28;20028;-75
2022/01/06 06:28:04;;;;;;;5.47;1.67;;;;;;;;;;5032271;28;20040;-75
2022/01/06 06:30:31;;;;;;;8.20;2.20;;;;;;;;;;5027023;28;20025;-75
2022/01/06 06:33:00;;;;;;;4.47;1.87;;;;;;;;;;5027026;28;20022;-75
2022/01/06 06:35:27;;;;;;;3.87;1.50;;;;;;;;;;5027291;28;20116;-76
2022/01/06 06:37:53;;;;;;;3.53;1.57;;;;;;;;;;5027061;28;20033;-76
2022/01/06 06:40:22;;;;;;;5.40;1.70;;;;;;;;;;5030212;28;20025;-75
2022/01/06 06:42:49;;;;;;;4.00;1.90;;;;;;;;;;5033254;28;20037;-75
2022/01/06 06:45:16;;;;;;;3.37;1.47;;;;;;;;;;5033912;28;20468;-75
2022/01/06 06:47:42;;;;;;;4.37;1.73;;;;;;;;;;5033784;28;20096;-75
2022/01/06 06:50:11;;;;;;;5.07;1.73;;;;;;;;;;5033360;28;20025;-75
2022/01/06 06:52:38;;;;;;;3.37;1.50;;;;;;;;;;5028919;28;20025;-75
2022/01/06 06:55:05;;;;;;;3.07;1.17;;;;;;;;;;5028281;28;20715;-75
2022/01/06 06:57:33;;;;;;;5.47;1.40;;;;;;;;;;5028298;28;20071;-75
2022/01/06 07:00:03;;;;;;;2.87;1.27;;;;;;;;;;5027773;28;20036;-73
2022/01/06 07:02:31;;;;;;;2.73;1.30;;;;;;;;;;5031718;28;20384;-75
2022/01/06 07:04:59;;;;;;;5.23;1.43;;;;;;;;;;5033645;28;20030;-75
2022/01/06 07:07:26;;;;;;;3.00;1.50;;;;;;;;;;5033508;28;20044;-75
2022/01/06 07:09:53;;;;;;;6.63;1.70;;;;;;;;;;5033220;28;20103;-75
2022/01/06 07:12:19;;;;;;;3.17;1.67;;;;;;;;;;5033660;28;20057;-75
2022/01/06 07:14:46;;;;;;;6.70;1.60;;;;;;;;;;5029364;28;20044;-75
2022/01/06 07:17:13;;;;;;;3.53;1.50;;;;;;;;;;5027940;28;20049;-75
2022/01/06 07:19:40;;;;;;;2.87;1.07;;;;;;;;;;5028022;28;20491;-75
2022/01/06 07:22:07;;;;;;;5.70;1.40;;;;;;;;;;5027549;28;20037;-75
2022/01/06 07:24:34;;;;;;;3.43;1.47;;;;;;;;;;5031149;28;20022;-75
2022/01/06 07:27:01;;;;;;;2.23;1.10;;;;;;;;;;5033282;28;20052;-75
2022/01/06 07:29:29;;;;;;;5.57;1.63;;;;;;;;;;5033347;28;20349;-75
2022/01/06 07:31:56;;;;;;;4.80;1.60;;;;;;;;;;5032987;28;20376;-75
2022/01/06 07:34:23;;;;;;;4.37;1.50;;;;;;;;;;5032361;28;20434;-75
2022/01/06 07:36:49;;;;;;;3.33;1.43;;;;;;;;;;5029549;28;20018;-75
2022/01/06 07:39:16;;;;;;;4.80;1.60;;;;;;;;;;5027639;28;20052;-75
2022/01/06 07:41:43;;;;;;;2.47;1.20;;;;;;;;;;5027103;28;20487;-75
2022/01/06 07:44:10;;;;;;;4.87;1.50;;;;;;;;;;5027713;28;20813;-75
2022/01/06 07:46:37;;;;;;;5.33;1.77;;;;;;;;;;5030379;28;20107;-74
2022/01/06 07:49:05;;;;;;;2.53;1.30;;;;;;;;;;5032972;28;20353;-75
2022/01/06 07:51:32;;;;;;;2.47;1.10;;;;;;;;;;5032797;28;20510;-74
2022/01/06 07:54:00;;;;;;;2.50;1.27;;;;;;;;;;5033095;28;20024;-74
2022/01/06 07:56:27;;;;;;;4.40;1.33;;;;;;;;;;5032877;28;20037;-74
2022/01/06 07:58:54;;;;;;;2.97;1.40;;;;;;;;;;5029803;28;20052;-75
2022/01/06 08:01:21;;;;;;;3.23;1.30;;;;;;;;;;5027185;28;20029;-74
2022/01/06 08:03:48;;;;;;;3.20;1.33;;;;;;;;;;5027402;28;20037;-75
2022/01/06 08:06:15;;;;;;;6.70;1.10;;;;;;;;;;5027417;28;20112;-75
2022/01/06 08:08:42;;;;;;;2.40;1.20;;;;;;;;;;5029939;28;20419;-75
2022/01/06 08:11:09;;;;;;;4.90;2.30;;;;;;;;;;5032516;28;20029;-75
2022/01/06 08:13:36;;;;;;;2.60;1.13;;;;;;;;;;5032925;28;20026;-75
2022/01/06 08:16:03;;;;;;;2.67;1.30;;;;;;;;;;5032540;28;20423;-74
2022/01/06 08:18:30;;;;;;;3.23;1.40;;;;;;;;;;5032789;28;20033;-74
2022/01/06 08:20:58;;;;;;;4.57;1.13;;;;;;;;;;5029567;28;20029;-75
2022/01/06 08:23:25;;;;;;;3.13;1.47;;;;;;;;;;5027234;28;20520;-74
2022/01/06 08:25:52;;;;;;;2.40;1.13;;;;;;;;;;5027308;28;20079;-75
2022/01/06 08:28:19;;;;;;;2.83;1.30;;;;;;;;;;5027260;28;20041;-75
2022/01/06 08:30:45;;;;;;;3.13;1.60;;;;;;;;;;5029068;28;20029;-74
2022/01/06 08:33:13;;;;;;;4.17;1.33;;;;;;;;;;5032616;28;20035;-74
2022/01/06 08:35:39;;;;;;;2.63;1.30;;;;;;;;;;5032478;28;20061;-74
2022/01/06 08:38:06;;;;;;;4.10;1.70;;;;;;;;;;5032799;28;20021;-75
2022/01/06 08:40:33;;;;;;;4.50;1.50;;;;;;;;;;5032095;28;20033;-75
2022/01/06 08:43:00;;;;;;;4.17;1.30;;;;;;;;;;5029860;28;20833;-76
2022/01/06 08:45:26;;;;;;;10.33;1.57;;;;;;;;;;5028836;28;20071;-75
2022/01/06 08:47:53;;;;;;;4.53;1.30;;;;;;;;;;5030658;28;20048;-75
2022/01/06 08:50:20;;;;;;;3.83;1.60;;;;;;;;;;5030690;28;20488;-75
2022/01/06 08:52:47;;;;;;;2.87;1.30;;;;;;;;;;5031824;28;20033;-74
2022/01/06 08:55:14;;;;;;;4.60;1.60;;;;;;;;;;5035993;28;20095;-75
2022/01/06 08:57:41;;;;;;;3.13;1.83;;;;;;;;;;5035755;28;20025;-74
2022/01/06 09:00:09;;;;;;;2.87;1.43;;;;;;;;;;5035956;28;20376;-75
2022/01/06 09:02:36;;;;;;;3.37;1.57;;;;;;;;;;5035944;28;20033;-75
2022/01/06 09:05:06;;;;;;;3.20;1.40;;;;;;;;;;5033713;28;20024;-75
2022/01/06 09:07:33;;;;;;;1.90;1.10;;;;;;;;;;5030202;28;20286;-74
2022/01/06 09:10:00;;;;;;;3.20;1.63;;;;;;;;;;5029946;28;20112;-74
2022/01/06 09:12:27;;;;;;;3.83;1.50;;;;;;;;;;5030172;28;20258;-75
2022/01/06 09:14:54;;;;;;;1.93;1.07;;;;;;;;;;5031462;28;20167;-75
2022/01/06 09:17:21;;;;;;;3.93;1.10;;;;;;;;;;5035525;28;20083;-75
2022/01/06 09:19:48;;;;;;;2.57;1.67;;;;;;;;;;5035329;28;20265;-74
2022/01/06 09:22:14;;;;;;;3.47;1.10;;;;;;;;;;5035584;28;20100;-75
2022/01/06 09:24:41;;;;;;;2.20;1.20;;;;;;;;;;5035406;28;20259;-74
2022/01/06 09:27:08;;;;;;;3.57;1.30;;;;;;;;;;5033747;28;20316;-74
2022/01/06 09:29:35;;;;;;;2.30;1.40;;;;;;;;;;5029501;28;20270;-75
2022/01/06 09:32:02;;;;;;;2.03;1.10;;;;;;;;;;5029947;28;20263;-75
2022/01/06 09:34:29;;;;;;;2.43;1.13;;;;;;;;;;5029966;28;20250;-75
2022/01/06 09:36:55;;;;;;;3.40;1.70;;;;;;;;;;5030629;28;20297;-74
2022/01/06 09:39:22;;;;;;;2.90;1.10;;;;;;;;;;5034700;28;20277;-74
2022/01/06 09:41:49;;;;;;;3.57;1.63;;;;;;;;;;5034976;28;20354;-74
2022/01/06 09:44:16;;;;;;;3.07;1.57;;;;;;;;;;5035183;28;20848;-74
2022/01/06 09:46:44;;;;;;;5.90;1.80;;;;;;;;;;5034851;28;20263;-75
2022/01/06 09:49:11;;;;;;;4.57;1.50;;;;;;;;;;5033266;28;20349;-75
2022/01/06 09:51:37;;;;;;;4.53;1.33;;;;;;;;;;5029604;28;20262;-75
2022/01/06 09:54:04;;;;;;;2.20;1.00;;;;;;;;;;5029342;28;20288;-75
2022/01/06 09:56:31;;;;;;;2.90;1.40;;;;;;;;;;5028716;28;20622;-75
2022/01/06 09:58:58;;;;;;;6.37;1.30;;;;;;;;;;5029833;28;20748;-74
2022/01/06 10:01:25;;;;;;;1.57;1.03;;;;;;;;;;5034354;28;20262;-75
2022/01/06 10:03:51;;;;;;;3.13;1.30;;;;;;;;;;5034944;28;20749;-74
2022/01/06 10:06:21;;;;;;;3.10;1.50;;;;;;;;;;5034333;28;20321;-74
2022/01/06 10:09:02;;;;;;;3.70;1.70;;;;;;;;;;5034142;28;20757;-75
2022/01/06 10:11:35;;;;;;;2.83;1.30;;;;;;;;;;5033129;28;20261;-75
2022/01/06 10:14:05;;;;;;;3.90;1.90;;;;;;;;;;5029000;28;20263;-75
2022/01/06 10:16:33;;;;;;;2.70;1.13;;;;;;;;;;5028907;28;20313;-74
2022/01/06 10:19:10;;;;;;;2.80;1.23;;;;;;;;;;5028863;28;20263;-74
2022/01/06 10:21:58;;;;;;;2.43;1.33;;;;;;;;;;5030451;28;20282;-74
2022/01/06 10:24:28;;;;;;;2.87;1.17;;;;;;;;;;5034378;28;20824;-75
2022/01/06 10:26:55;;;;;;;3.30;1.43;;;;;;;;;;5034321;28;20337;-75
2022/01/06 10:29:22;;;;;;;7.10;1.30;;;;;;;;;;5033887;28;20258;-75
2022/01/06 10:31:49;;;;;;;7.00;2.07;;;;;;;;;;5034083;28;20266;-74
2022/01/06 10:34:16;;;;;;;5.20;1.50;;;;;;;;;;5031572;28;20609;-75
2022/01/06 10:36:43;;;;;;;2.80;1.10;;;;;;;;;;5028487;28;20615;-75
2022/01/06 10:39:10;;;;;;;2.13;1.20;;;;;;;;;;5027600;28;20339;-74
2022/01/06 10:41:37;;;;;;;3.00;1.40;;;;;;;;;;5028612;28;20258;-74
2022/01/06 10:44:05;;;;;;;2.70;1.30;;;;;;;;;;5030449;28;20266;-75
2022/01/06 10:46:34;;;;;;;1.97;1.30;;;;;;;;;;5033855;28;20332;-74
2022/01/06 10:49:02;;;;;;;2.77;1.47;;;;;;;;;;5033663;28;20621;-74
2022/01/06 10:51:36;;;;;;;2.33;1.10;;;;;;;;;;5033793;28;20255;-74
2022/01/06 10:54:04;;;;;;;2.83;1.25;;;;;;;;;;5033795;28;20296;-74
2022/01/06 10:56:30;;;;;;;2.27;1.30;;;;;;;;;;5030919;28;20503;-74
2022/01/06 10:59:00;;;;;;;2.00;1.03;;;;;;;;;;5028010;28;20754;-75
2022/01/06 11:01:27;;;;;;;3.57;1.60;;;;;;;;;;5028197;28;20278;-74
2022/01/06 11:03:54;;;;;;;4.10;1.30;;;;;;;;;;5028361;28;20305;-74
2022/01/06 11:06:21;;;;;;;3.33;1.60;;;;;;;;;;5030090;28;20259;-74
2022/01/06 11:08:48;;;;;;;3.00;1.43;;;;;;;;;;5032236;28;20263;-75
2022/01/06 11:11:28;;;;;;;2.87;1.37;;;;;;;;;;5033396;28;20247;-75
2022/01/06 11:13:54;;;;;;;3.90;1.80;;;;;;;;;;5033312;28;20266;-75
2022/01/06 11:16:21;;;;;;;2.83;1.53;;;;;;;;;;5033386;28;20313;-74
2022/01/06 11:18:58;;;;;;;2.37;1.30;;;;;;;;;;5030542;28;20783;-75
2022/01/06 11:21:28;;;;;;;2.97;1.50;;;;;;;;;;5028118;28;20251;-75
2022/01/06 11:24:12;;;;;;;5.43;1.40;;;;;;;;;;5027861;28;20251;-74
2022/01/06 11:26:38;;;;;;;2.63;1.43;;;;;;;;;;5027801;28;20269;-75
2022/01/06 11:29:05;;;;;;;2.83;1.47;;;;;;;;;;5030730;28;20263;-74
2022/01/06 11:31:37;;;;;;;2.07;1.13;;;;;;;;;;5033268;28;20669;-74
2022/01/06 11:34:16;;;;;;;3.67;1.60;;;;;;;;;;5033189;28;20242;-75
2022/01/06 11:36:43;;;;;;;3.80;1.20;;;;;;;;;;5033064;28;20286;-75
2022/01/06 11:39:20;;;;;;;4.30;1.57;;;;;;;;;;5032837;28;20258;-75
2022/01/06 11:41:47;;;;;;;5.97;1.77;;;;;;;;;;5028364;28;20259;-74
2022/01/06 11:44:17;;;;;;;2.20;1.13;;;;;;;;;;5027633;28;20267;-74
2022/01/06 11:46:45;;;;;;;4.83;1.60;;;;;;;;;;5027775;28;20341;-75
2022/01/06 11:49:12;;;;;;;3.07;1.40;;;;;;;;;;5027288;28;20298;-74
2022/01/06 11:51:38;;;;;;;2.90;1.43;;;;;;;;;;5031703;28;20293;-74
2022/01/06 11:54:13;;;;;;;2.77;1.40;;;;;;;;;;5033045;28;20673;-75
2022/01/06 11:56:47;;;;;;;3.10;1.63;;;;;;;;;;5032782;28;20293;-75
2022/01/06 11:59:14;;;;;;;4.77;1.53;;;;;;;;;;5032630;28;20033;-74
2022/01/06 12:01:48;;;;;;;4.33;1.63;;;;;;;;;;5033001;28;20270;-75
2022/01/06 12:04:19;;;;;;;4.18;2.25;;;;;;;;;;5027645;28;20263;-75
2022/01/06 12:06:46;;;;;;;2.90;1.60;;;;;;;;;;5027278;28;20040;-74
2022/01/06 12:09:23;;;;;;;3.10;1.50;;;;;;;;;;5027373;28;20628;-75
2022/01/06 12:12:19;;;;;;;3.70;1.80;;;;;;;;;;5026764;28;20375;-74
2022/01/06 12:14:45;;;;;;;3.70;1.98;;;;;;;;;;5019168;28;20327;-74
2022/01/06 12:17:12;;;;;;;4.93;1.90;;;;;;;;;;5032619;28;20041;-74
2022/01/06 12:19:39;;;;;;;3.90;2.20;;;;;;;;;;5033446;28;20249;-74
2022/01/06 12:22:10;;;;;;;3.33;1.97;;;;;;;;;;5036339;28;20293;-74
2022/01/06 12:24:37;;;;;;;6.10;1.70;;;;;;;;;;5035586;28;20255;-75
2022/01/06 12:27:04;;;;;;;6.70;2.70;;;;;;;;;;5030672;28;20324;-75
2022/01/06 12:29:34;;;;;;;7.93;2.53;;;;;;;;;;5030775;28;20354;-75
2022/01/06 12:32:11;;;;;;;3.80;2.00;;;;;;;;;;5031016;28;20262;-75
2022/01/06 12:34:39;;;;;;;3.53;1.90;;;;;;;;;;5031724;28;20254;-75
2022/01/06 12:37:06;;;;;;;5.87;2.20;;;;;;;;;;5035898;28;20621;-75
2022/01/06 12:39:32;;;;;;;6.63;2.80;;;;;;;;;;5036086;28;20608;-75
2022/01/06 12:42:02;;;;;;;7.30;2.80;;;;;;;;;;5036456;28;20259;-75
2022/01/06 12:44:29;;;;;;;4.97;2.40;;;;;;;;;;5036219;28;20304;-75
2022/01/06 12:46:57;;;;;;;5.37;2.30;;;;;;;;;;5034310;28;20274;-75
2022/01/06 12:49:26;;;;;;;4.70;2.20;;;;;;;;;;5030612;28;20342;-75
2022/01/06 12:51:57;;;;;;;3.50;2.10;;;;;;;;;;5030624;28;20343;-75
2022/01/06 12:54:24;;;;;;;6.50;2.60;;;;;;;;;;5030489;28;20266;-74
2022/01/06 12:56:53;;;;;;;5.77;2.40;;;;;;;;;;5031368;28;20344;-75
2022/01/06 12:59:29;;;;;;;5.90;2.70;;;;;;;;;;5035939;28;20270;-75
2022/01/06 13:01:57;;;;;;;6.10;2.65;;;;;;;;;;5036091;28;20263;-75
2022/01/06 13:04:29;;;;;;;4.17;1.90;;;;;;;;;;5035639;28;20041;-75
2022/01/06 13:06:57;;;;;;;6.80;3.43;;;;;;;;;;5035633;28;20304;-75
2022/01/06 13:09:25;;;;;;;7.73;2.90;;;;;;;;;;5033643;28;20262;-76
2022/01/06 13:11:53;;;;;;;6.30;2.90;;;;;;;;;;5030411;28;20310;-75
2022/01/06 13:14:36;;;;;;;7.63;3.93;;;;;;;;;;5029820;28;20273;-75
2022/01/06 13:17:29;;;;;;;9.93;4.30;;;;;;;;;;5030088;28;20271;-75
2022/01/06 13:20:00;;;;;;;23.43;9.67;;;;;;;;;;5030360;28;20277;-75
2022/01/06 13:22:37;;;;;;;20.23;8.10;;;;;;;;;;5035520;28;20263;-74
2022/01/06 13:25:10;;;;;;;22.37;9.63;;;;;;;;;;5035496;28;20270;-75
2022/01/06 13:27:38;;;;;;;23.33;10.90;;;;;;;;;;5035353;28;20737;-75
2022/01/06 13:30:07;;;;;;;26.97;11.97;;;;;;;;;;5035425;28;20719;-75
2022/01/06 13:32:34;;;;;;;19.30;8.83;;;;;;;;;;5030220;28;20263;-74
2022/01/06 13:35:05;;;;;;;24.07;10.67;;;;;;;;;;5029532;28;20776;-75
2022/01/06 13:37:33;;;;;;;24.53;10.93;;;;;;;;;;5011661;28;20671;-74
2022/01/06 13:40:01;;;;;;;24.73;10.13;;;;;;;;;;5029833;28;20744;-75
2022/01/06 13:42:29;;;;;;;16.87;6.80;;;;;;;;;;5033454;28;20255;-75
2022/01/06 13:45:03;;;;;;;11.00;5.13;;;;;;;;;;5035111;28;20251;-75
2022/01/06 13:47:35;;;;;;;13.57;5.57;;;;;;;;;;5034770;28;20263;-74
2022/01/06 13:52:52;;;;;;;7.83;3.63;;;;;;;;;;5035068;28;20320;-75
2022/01/06 13:55:19;;;;;;;13.87;5.83;;;;;;;;;;5029019;28;20301;-75
2022/01/06 13:57:45;;;;;;;12.83;6.60;;;;;;;;;;5009498;28;20618;-75
2022/01/06 14:00:15;;;;;;;12.13;5.50;;;;;;;;;;5000903;28;20660;-75
2022/01/06 14:02:42;;;;;;;17.07;7.37;;;;;;;;;;5028408;28;20266;-75
2022/01/06 14:05:10;;;;;;;13.50;5.77;;;;;;;;;;5034315;28;20337;-74
2022/01/06 14:07:37;;;;;;;10.10;5.30;;;;;;;;;;5034450;28;20282;-75
2022/01/06 14:10:05;;;;;;;15.33;5.63;;;;;;;;;;5034217;28;20259;-75
2022/01/06 14:12:35;;;;;;;15.37;5.33;;;;;;;;;;5034438;28;20025;-74
2022/01/06 14:15:01;;;;;;;10.73;5.67;;;;;;;;;;5034346;28;20468;-75
2022/01/06 14:17:29;;;;;;;20.10;6.20;;;;;;;;;;5028985;28;20433;-75
2022/01/06 14:19:58;;;;;;;17.03;5.13;;;;;;;;;;5028705;28;20464;-75
2022/01/06 14:22:26;;;;;;;9.33;5.03;;;;;;;;;;5028894;28;20025;-75
2022/01/06 14:24:54;;;;;;;11.43;4.33;;;;;;;;;;5028743;28;20418;-75
2022/01/06 14:27:21;;;;;;;10.47;4.23;;;;;;;;;;5034084;28;20025;-75
2022/01/06 14:29:48;;;;;;;10.23;5.23;;;;;;;;;;5033488;28;20025;-75
2022/01/06 14:32:14;;;;;;;10.40;4.60;;;;;;;;;;5034094;28;20025;-75
2022/01/06 14:34:41;;;;;;;9.77;4.60;;;;;;;;;;5033901;28;20480;-75
2022/01/06 14:37:08;;;;;;;15.83;4.90;;;;;;;;;;5016572;28;20449;-75
2022/01/06 14:39:35;;;;;;;11.43;5.67;;;;;;;;;;5028234;28;20477;-75
2022/01/06 14:42:01;;;;;;;9.70;3.70;;;;;;;;;;5028507;28;20476;-75
2022/01/06 14:44:28;;;;;;;13.23;3.90;;;;;;;;;;5028430;28;20092;-75
2022/01/06 14:46:55;;;;;;;7.43;3.23;;;;;;;;;;5028355;28;20553;-73
2022/01/06 14:49:22;;;;;;;6.20;3.60;;;;;;;;;;5032691;28;20025;-74
2022/01/06 14:51:49;;;;;;;8.67;4.20;;;;;;;;;;5031883;28;20083;-73
2022/01/06 14:54:16;;;;;;;7.73;4.30;;;;;;;;;;5033631;28;20026;-75
2022/01/06 14:56:43;;;;;;;8.73;3.67;;;;;;;;;;5033629;28;20114;-75